Main page
METAR-TAF:

METAR-TAF

Airports :

Warton Aerodrome

Preston, England

latitude: 53-44-42N, longitude: 2-53-02W, elevation: 17 m

Current weather observation

The report was made 24 minutes ago, at 08:50 UTC
Wind 7 kt from the West/Northwest
Temperature 9°C
Humidity 87%
Pressure 1033 hPa
Visibility 10 km or more
Few clouds at a height of 1000 ft
Broken clouds at a height of 4200 ft

METAR: EGNO 260850Z 29007KT 9999 FEW010 BKN042 09/07 Q1033

Time: 09:14 (09:14 UTC)

Forecast

The report was made 1 hour and 14 minutes ago, at 08:00 UTC
Forecast valid from 26 at 09 UTC to 26 at 18 UTC
Wind 7 kt from the West/Northwest
Visibility 10 km or more
Scattered clouds at a height of 4500 ft

TAF: EGNO 260800Z 2609/2618 29007KT 9999 SCT045

Weather observations and forecasts of more than 4000 airports (METAR and TAF reports).

The available stations are represented by yellow and red dots on the map.

Hover mouse over dot to see the name of the station.

Then click to see weather observations and forecasts.

To change the map : click on the green buttons with a black cross to zoom in, on the green button with a dash to zoom out, or on the green arrows for adjacent maps.


METAR-TAF: